createdAt,value
2017-11-27T00:01:29.993Z,96737.13
2017-11-27T00:03:57.503Z,96752.92
2017-11-27T00:06:25.058Z,96754.24
2017-11-27T00:08:52.640Z,96753.59
2017-11-27T00:11:20.169Z,96762.31
2017-11-27T00:13:47.728Z,96748.23
2017-11-27T00:16:15.297Z,96759.09
2017-11-27T00:18:42.845Z,96756.38
2017-11-27T00:21:10.435Z,96755.95
2017-11-27T00:23:38.031Z,96757.16
2017-11-27T00:26:05.626Z,96753.36
2017-11-27T00:28:33.173Z,96756.32
2017-11-27T00:31:00.811Z,96759.64
2017-11-27T00:33:28.365Z,96756.15
2017-11-27T00:35:55.926Z,96764.93
2017-11-27T00:38:23.508Z,96767.16
2017-11-27T00:40:51.062Z,96763.01
2017-11-27T00:43:18.634Z,96770.45
2017-11-27T00:45:46.232Z,96763.89
2017-11-27T00:48:13.792Z,96760.72
2017-11-27T00:50:41.381Z,96760.71
2017-11-27T00:53:09.036Z,96757.72
2017-11-27T00:55:36.613Z,96757.83
2017-11-27T00:58:04.189Z,96759.58
2017-11-27T01:00:31.752Z,96764.14
2017-11-27T01:02:59.334Z,96769.27
2017-11-27T01:05:27.029Z,96764.77
2017-11-27T01:07:54.573Z,96768.95
2017-11-27T01:10:22.128Z,96770.45
2017-11-27T01:12:49.654Z,96767.57
2017-11-27T01:15:17.193Z,96772.93
2017-11-27T01:17:44.784Z,96772.57
2017-11-27T01:20:12.318Z,96777.70
2017-11-27T01:22:39.886Z,96772.50
2017-11-27T01:25:07.594Z,96770.93
2017-11-27T01:27:35.158Z,96774.86
2017-11-27T01:30:02.691Z,96774.31
2017-11-27T01:32:30.243Z,96776.41
2017-11-27T01:34:57.786Z,96774.72
2017-11-27T01:37:25.352Z,96767.81
2017-11-27T01:39:52.935Z,96771.98
2017-11-27T01:42:20.503Z,96776.77
2017-11-27T01:44:48.093Z,96775.09
2017-11-27T01:47:15.672Z,96773.17
2017-11-27T01:49:43.223Z,96768.53
2017-11-27T01:52:10.906Z,96775.11
2017-11-27T01:54:38.502Z,96767.83
2017-11-27T01:57:06.082Z,96768.61
2017-11-27T01:59:33.665Z,96769.07
2017-11-27T02:02:01.235Z,96766.43
2017-11-27T02:04:28.803Z,96770.09
2017-11-27T02:06:56.383Z,96762.69
2017-11-27T02:09:23.987Z,96764.09
2017-11-27T02:11:51.557Z,96762.09
2017-11-27T02:14:19.110Z,96760.04
2017-11-27T02:16:46.679Z,96759.68
2017-11-27T02:19:14.213Z,96760.83
2017-11-27T02:21:41.757Z,96756.09
2017-11-27T02:24:09.325Z,96758.84
2017-11-27T02:26:36.875Z,96755.91
2017-11-27T02:29:04.526Z,96757.70
2017-11-27T02:31:32.093Z,96763.83
2017-11-27T02:33:59.636Z,96770.29
2017-11-27T02:36:27.190Z,96770.78
2017-11-27T02:38:54.774Z,96772.98
2017-11-27T02:41:22.366Z,96774.98
2017-11-27T02:43:49.923Z,96771.59
2017-11-27T02:46:17.510Z,96771.59
2017-11-27T02:48:45.052Z,96775.65
2017-11-27T02:51:12.736Z,96779.07
2017-11-27T02:53:40.777Z,96771.80
2017-11-27T02:56:08.661Z,96773.55
2017-11-27T02:58:36.208Z,96773.42
2017-11-27T03:01:03.758Z,96768.95
2017-11-27T03:03:31.801Z,96773.89
2017-11-27T03:05:59.458Z,96786.18
2017-11-27T03:08:27.008Z,96781.55
2017-11-27T03:10:54.580Z,96782.70
2017-11-27T03:13:22.271Z,96787.88
2017-11-27T03:15:49.806Z,96782.80
2017-11-27T03:18:17.369Z,96781.23
2017-11-27T03:20:44.929Z,96785.15
2017-11-27T03:23:12.714Z,96791.09
2017-11-27T03:25:40.316Z,96794.84
2017-11-27T03:28:07.917Z,96799.55
2017-11-27T03:30:37.193Z,96802.66
2017-11-27T03:33:04.863Z,96789.43
2017-11-27T03:35:32.417Z,96795.09
2017-11-27T03:38:00.041Z,96798.41
2017-11-27T03:40:27.578Z,96794.07
2017-11-27T03:42:55.183Z,96790.64
2017-11-27T03:45:22.819Z,96789.42
2017-11-27T03:47:50.486Z,96789.38
2017-11-27T03:50:18.042Z,96785.77
2017-11-27T03:52:45.641Z,96785.70
2017-11-27T03:55:13.521Z,96794.05
2017-11-27T03:57:41.073Z,96792.64
2017-11-27T04:00:08.664Z,96795.83
2017-11-27T04:02:36.243Z,96793.48
2017-11-27T04:05:03.827Z,96795.25
2017-11-27T04:07:31.394Z,96793.85
2017-11-27T04:09:58.976Z,96800.23
2017-11-27T04:12:26.527Z,96794.45
2017-11-27T04:14:54.105Z,96797.34
2017-11-27T04:17:21.705Z,96799.81
2017-11-27T04:19:49.241Z,96806.72
2017-11-27T04:22:16.779Z,96802.95
2017-11-27T04:24:44.352Z,96800.36
2017-11-27T04:27:11.891Z,96801.30
2017-11-27T04:29:39.462Z,96804.68
2017-11-27T04:32:07.015Z,96804.27
2017-11-27T04:34:35.282Z,96789.75
2017-11-27T04:37:03.208Z,96793.28
2017-11-27T04:39:31.103Z,96787.28
2017-11-27T04:41:58.623Z,96792.93
2017-11-27T04:44:26.158Z,96789.30
2017-11-27T04:46:53.676Z,96787.63
2017-11-27T04:49:21.208Z,96797.34
2017-11-27T04:51:48.716Z,96807.50
2017-11-27T04:54:16.233Z,96810.41
2017-11-27T04:56:43.701Z,96812.16
2017-11-27T04:59:11.247Z,96816.95
2017-11-27T05:01:38.772Z,96814.90
2017-11-27T05:04:06.292Z,96819.30
2017-11-27T05:06:33.826Z,96819.56
2017-11-27T05:09:01.392Z,96820.81
2017-11-27T05:11:28.931Z,96820.09
2017-11-27T05:13:56.469Z,96817.79
2017-11-27T05:16:24.275Z,96819.14
2017-11-27T05:18:52.022Z,96820.39
2017-11-27T05:21:19.595Z,96815.05
2017-11-27T05:23:47.159Z,96818.62
2017-11-27T05:26:14.707Z,96817.19
2017-11-27T05:28:42.296Z,96818.88
2017-11-27T05:31:10.128Z,96819.19
2017-11-27T05:33:37.701Z,96820.03
2017-11-27T05:36:05.270Z,96822.87
2017-11-27T05:38:32.815Z,96816.23
2017-11-27T05:41:00.343Z,96820.51
2017-11-27T05:43:28.053Z,96817.55
2017-11-27T05:45:55.625Z,96819.93
2017-11-27T05:48:23.236Z,96818.81
2017-11-27T05:50:50.800Z,96821.35
2017-11-27T05:53:18.348Z,96823.88
2017-11-27T05:55:45.910Z,96822.51
2017-11-27T05:58:13.492Z,96828.52
2017-11-27T06:00:41.092Z,96832.15
2017-11-27T06:03:08.862Z,96833.34
2017-11-27T06:05:36.492Z,96841.03
2017-11-27T06:08:04.105Z,96830.55
2017-11-27T06:10:32.222Z,96840.19
2017-11-27T06:12:59.771Z,96835.24
2017-11-27T06:15:27.325Z,96835.25
2017-11-27T06:17:54.877Z,96832.66
2017-11-27T06:20:22.412Z,96837.47
2017-11-27T06:22:49.973Z,96842.83
2017-11-27T06:25:17.513Z,96838.20
2017-11-27T06:27:45.072Z,96835.79
2017-11-27T06:30:12.825Z,96843.05
2017-11-27T06:32:40.400Z,96841.27
2017-11-27T06:35:07.989Z,96842.45
2017-11-27T06:37:35.566Z,96849.27
2017-11-27T06:40:03.091Z,96854.20
2017-11-27T06:42:30.652Z,96853.37
2017-11-27T06:44:58.215Z,96857.11
2017-11-27T06:47:25.761Z,96857.98
2017-11-27T06:49:53.297Z,96858.08
2017-11-27T06:52:20.868Z,96863.88
2017-11-27T06:54:48.404Z,96868.50
2017-11-27T06:57:16.285Z,96863.32
2017-11-27T06:59:43.844Z,96865.08
2017-11-27T07:02:11.392Z,96859.19
2017-11-27T07:04:38.935Z,96873.82
2017-11-27T07:07:06.639Z,96869.59
2017-11-27T07:09:34.170Z,96870.74
2017-11-27T07:12:01.680Z,96873.80
2017-11-27T07:14:29.244Z,96869.05
2017-11-27T07:16:56.792Z,96873.53
2017-11-27T07:19:24.330Z,96869.00
2017-11-27T07:21:51.893Z,96871.36
2017-11-27T07:24:19.423Z,96869.58
2017-11-27T07:26:46.979Z,96872.77
2017-11-27T07:29:14.624Z,96875.72
2017-11-27T07:31:42.166Z,96871.10
2017-11-27T07:34:09.727Z,96871.84
2017-11-27T07:36:37.286Z,96870.96
2017-11-27T07:39:10.432Z,96874.89
2017-11-27T07:41:38.040Z,96877.06
2017-11-27T07:44:05.607Z,96871.58
2017-11-27T07:46:33.197Z,96868.87
2017-11-27T07:49:00.763Z,96870.42
2017-11-27T07:51:28.303Z,96880.78
2017-11-27T07:53:55.851Z,96881.45
2017-11-27T07:56:23.419Z,96876.22
2017-11-27T07:58:50.959Z,96878.02
2017-11-27T08:01:18.513Z,96877.13
2017-11-27T08:03:46.114Z,96879.18
2017-11-27T08:06:13.655Z,96880.12
2017-11-27T08:08:41.324Z,96884.48
2017-11-27T08:11:09.182Z,96881.89
2017-11-27T08:13:38.193Z,96887.11
2017-11-27T08:16:05.817Z,96888.87
2017-11-27T08:18:33.430Z,96888.27
2017-11-27T08:21:00.974Z,96892.66
2017-11-27T08:23:29.929Z,96898.39
2017-11-27T08:25:57.570Z,96893.80
2017-11-27T08:28:25.133Z,96895.98
2017-11-27T08:30:52.660Z,96888.03
2017-11-27T08:33:20.318Z,96889.16
2017-11-27T08:35:47.934Z,96885.75
2017-11-27T08:38:15.479Z,96889.77
2017-11-27T08:40:43.057Z,96892.44
2017-11-27T08:43:11.186Z,96898.27
2017-11-27T08:45:39.713Z,96898.09
2017-11-27T08:48:07.309Z,96887.30
2017-11-27T08:50:34.895Z,96892.95
2017-11-27T08:53:02.474Z,96894.39
2017-11-27T08:55:30.037Z,96887.02
2017-11-27T08:57:57.599Z,96890.02
2017-11-27T09:00:25.172Z,96892.23
2017-11-27T09:02:52.757Z,96890.71
2017-11-27T09:05:33.054Z,96891.14
2017-11-27T09:08:00.657Z,96893.13
2017-11-27T09:10:30.280Z,96896.27
2017-11-27T09:12:57.828Z,96895.53
2017-11-27T09:15:25.393Z,96895.27
2017-11-27T09:17:52.954Z,96898.52
2017-11-27T09:20:20.617Z,96905.41
2017-11-27T09:22:48.192Z,96903.61
2017-11-27T09:25:16.089Z,96897.18
2017-11-27T09:27:45.120Z,96900.33
2017-11-27T09:30:12.741Z,96892.17
2017-11-27T09:32:40.293Z,96895.81
2017-11-27T09:35:07.882Z,96886.39
2017-11-27T09:37:35.516Z,96894.34
2017-11-27T09:40:03.076Z,96896.07
2017-11-27T09:42:30.657Z,96895.16
2017-11-27T09:44:58.268Z,96892.58
2017-11-27T09:47:26.661Z,96895.55
2017-11-27T09:49:54.225Z,96894.86
2017-11-27T09:52:21.905Z,96886.55
2017-11-27T09:54:49.858Z,96886.26
2017-11-27T09:57:17.512Z,96874.23
2017-11-27T09:59:45.110Z,96877.13
2017-11-27T10:02:12.675Z,96876.48
2017-11-27T10:04:40.280Z,96878.30
2017-11-27T10:07:08.161Z,96877.01
2017-11-27T10:09:35.785Z,96873.22
2017-11-27T10:12:03.377Z,96861.42
2017-11-27T10:14:30.966Z,96862.45
2017-11-27T10:16:58.539Z,96853.55
2017-11-27T10:19:26.742Z,96844.49
2017-11-27T10:21:54.396Z,96850.23
2017-11-27T10:24:23.579Z,96847.30
2017-11-27T10:26:51.192Z,96844.34
2017-11-27T10:29:18.750Z,96836.22
2017-11-27T10:31:46.326Z,96826.78
2017-11-27T10:34:13.916Z,96820.88
2017-11-27T10:36:41.483Z,96815.63
2017-11-27T10:39:09.163Z,96813.72
2017-11-27T10:41:36.809Z,96810.05
2017-11-27T10:44:04.546Z,96808.09
2017-11-27T10:46:32.112Z,96807.31
2017-11-27T10:48:59.794Z,96806.55
2017-11-27T10:51:28.105Z,96805.81
2017-11-27T10:53:55.757Z,96808.30
2017-11-27T10:56:23.381Z,96797.51
2017-11-27T10:58:51.032Z,96803.92
2017-11-27T11:01:18.701Z,96788.64
2017-11-27T11:03:48.277Z,96791.75
2017-11-27T11:06:15.917Z,96788.38
2017-11-27T11:08:43.508Z,96779.42
2017-11-27T11:11:12.363Z,96783.52
2017-11-27T11:13:40.318Z,96778.34
2017-11-27T11:16:08.043Z,96769.01
2017-11-27T11:18:36.200Z,96771.91
2017-11-27T11:21:03.942Z,96762.61
2017-11-27T11:23:31.997Z,96754.69
2017-11-27T11:26:07.022Z,96752.73
2017-11-27T11:28:34.794Z,96755.81
2017-11-27T11:31:03.707Z,96760.67
2017-11-27T11:33:31.309Z,96750.52
2017-11-27T11:35:58.886Z,96747.90
2017-11-27T11:38:26.441Z,96747.16
2017-11-27T11:40:54.108Z,96742.30
2017-11-27T11:43:21.690Z,96743.44
2017-11-27T11:45:49.243Z,96740.96
2017-11-27T11:48:16.850Z,96731.94
2017-11-27T11:50:45.489Z,96730.73
2017-11-27T11:53:13.204Z,96730.59
2017-11-27T11:55:40.819Z,96717.47
2017-11-27T12:00:36.186Z,96713.69
2017-11-27T12:03:03.810Z,96708.44
2017-11-27T12:05:31.348Z,96716.39
2017-11-27T12:07:59.479Z,96714.31
2017-11-27T12:10:27.097Z,96707.00
2017-11-27T12:12:54.683Z,96711.47
2017-11-27T12:15:22.269Z,96712.34
2017-11-27T12:17:50.621Z,96713.70
2017-11-27T12:20:18.249Z,96709.69
2017-11-27T12:22:45.830Z,96712.39
2017-11-27T12:25:13.439Z,96704.91
2017-11-27T12:27:41.540Z,96698.72
2017-11-27T12:30:09.930Z,96700.92
2017-11-27T12:32:37.526Z,96692.86
2017-11-27T12:35:06.014Z,96685.73
2017-11-27T12:37:34.820Z,96685.73
2017-11-27T12:40:02.400Z,96680.49
2017-11-27T12:42:34.316Z,96684.47
2017-11-27T12:45:01.945Z,96680.55
2017-11-27T12:47:29.926Z,96675.02
2017-11-27T12:49:57.518Z,96673.97
2017-11-27T12:52:25.130Z,96666.38
2017-11-27T12:54:52.713Z,96660.27
2017-11-27T12:57:20.326Z,96657.22
2017-11-27T12:59:47.907Z,96649.39
2017-11-27T13:02:15.791Z,96639.89
2017-11-27T13:04:43.406Z,96635.99
2017-11-27T13:07:11.322Z,96645.47
2017-11-27T13:09:38.871Z,96629.73
2017-11-27T13:12:06.543Z,96627.66
2017-11-27T13:14:34.086Z,96623.53
2017-11-27T13:17:01.656Z,96617.78
2017-11-27T13:19:29.244Z,96620.88
2017-11-27T13:21:56.804Z,96618.07
2017-11-27T13:24:24.411Z,96616.02
2017-11-27T13:26:51.984Z,96616.41
2017-11-27T13:29:19.659Z,96610.16
2017-11-27T13:31:47.268Z,96608.92
2017-11-27T13:34:14.816Z,96615.13
2017-11-27T13:36:42.381Z,96606.67
2017-11-27T13:39:10.023Z,96601.75
2017-11-27T13:41:37.619Z,96606.58
2017-11-27T13:44:05.177Z,96603.05
2017-11-27T13:46:32.737Z,96596.70
2017-11-27T13:49:00.293Z,96593.56
2017-11-27T13:51:27.850Z,96594.66
2017-11-27T13:53:55.407Z,96592.48
2017-11-27T13:56:23.443Z,96593.97
2017-11-27T13:58:51.506Z,96594.34
2017-11-27T14:01:19.089Z,96590.97
2017-11-27T14:03:46.644Z,96590.84
2017-11-27T14:06:14.404Z,96589.44
2017-11-27T14:08:41.948Z,96580.22
2017-11-27T14:11:09.638Z,96579.20
2017-11-27T14:13:37.251Z,96581.55
2017-11-27T14:16:04.803Z,96582.22
2017-11-27T14:18:32.366Z,96586.55
2017-11-27T14:20:59.923Z,96586.58
2017-11-27T14:23:27.631Z,96587.47
2017-11-27T14:25:55.199Z,96584.83
2017-11-27T14:28:23.770Z,96584.83
2017-11-27T14:30:51.325Z,96583.99
2017-11-27T14:33:18.916Z,96574.58
2017-11-27T14:35:46.524Z,96574.00
2017-11-27T14:38:14.158Z,96576.27
2017-11-27T14:40:41.706Z,96577.27
2017-11-27T14:43:09.377Z,96575.08
2017-11-27T14:45:37.477Z,96569.47
2017-11-27T14:48:05.182Z,96568.63
2017-11-27T14:50:32.910Z,96568.70
2017-11-27T14:53:00.446Z,96562.64
2017-11-27T14:55:28.064Z,96562.66
2017-11-27T14:57:55.708Z,96556.45
2017-11-27T15:00:23.347Z,96555.20
2017-11-27T15:02:52.790Z,96544.86
2017-11-27T15:05:20.368Z,96552.58
2017-11-27T15:07:47.966Z,96544.73
2017-11-27T15:10:15.575Z,96539.38
2017-11-27T15:12:43.158Z,96534.03
2017-11-27T15:15:10.838Z,96534.38
2017-11-27T15:17:38.417Z,96532.55
2017-11-27T15:20:06.064Z,96534.27
2017-11-27T15:22:33.660Z,96528.85
2017-11-27T15:25:01.228Z,96530.52
2017-11-27T15:27:29.289Z,96534.90
2017-11-27T15:29:56.872Z,96531.97
2017-11-27T15:32:24.505Z,96535.58
2017-11-27T15:34:52.088Z,96531.39
2017-11-27T15:37:19.736Z,96525.98
2017-11-27T15:39:47.368Z,96524.61
2017-11-27T15:42:14.979Z,96516.88
2017-11-27T15:44:42.577Z,96514.97
2017-11-27T15:47:10.380Z,96519.84
2017-11-27T15:49:38.259Z,96511.94
2017-11-27T15:52:06.167Z,96499.98
2017-11-27T15:54:33.840Z,96501.18
2017-11-27T15:57:01.468Z,96497.56
2017-11-27T15:59:29.070Z,96489.26
2017-11-27T16:01:56.669Z,96491.52
2017-11-27T16:04:24.270Z,96482.52
2017-11-27T16:06:51.863Z,96483.20
2017-11-27T16:09:19.493Z,96483.64
2017-11-27T16:11:47.085Z,96492.17
2017-11-27T16:14:14.669Z,96484.88
2017-11-27T16:16:42.224Z,96470.34
2017-11-27T16:19:09.892Z,96472.51
2017-11-27T16:21:37.455Z,96473.77
2017-11-27T16:24:05.060Z,96469.03
2017-11-27T16:26:32.680Z,96465.77
2017-11-27T16:29:00.275Z,96462.47
2017-11-27T16:31:27.977Z,96458.98
2017-11-27T16:33:55.545Z,96455.84
2017-11-27T16:36:24.605Z,96454.34
2017-11-27T16:38:52.186Z,96456.34
2017-11-27T16:41:19.787Z,96448.23
2017-11-27T16:43:47.393Z,96446.45
2017-11-27T16:46:14.969Z,96439.05
2017-11-27T16:48:42.571Z,96438.57
2017-11-27T16:51:10.184Z,96437.90
2017-11-27T16:53:37.761Z,96434.11
2017-11-27T16:56:05.320Z,96433.67
2017-11-27T16:58:33.034Z,96423.68
2017-11-27T17:01:00.617Z,96424.02
2017-11-27T17:03:28.273Z,96421.75
2017-11-27T17:05:55.990Z,96425.11
2017-11-27T17:08:23.553Z,96419.59
2017-11-27T17:10:51.193Z,96420.37
2017-11-27T17:13:18.755Z,96417.94
2017-11-27T17:15:46.360Z,96415.59
2017-11-27T17:18:14.006Z,96417.02
2017-11-27T17:20:41.642Z,96421.36
2017-11-27T17:23:09.334Z,96421.52
2017-11-27T17:25:36.952Z,96419.22
2017-11-27T17:28:04.580Z,96416.27
2017-11-27T17:30:32.443Z,96411.98
2017-11-27T17:33:00.062Z,96412.20
2017-11-27T17:35:27.727Z,96414.44
2017-11-27T17:37:55.378Z,96410.14
2017-11-27T17:40:23.042Z,96408.39
2017-11-27T17:42:50.691Z,96406.58
2017-11-27T17:45:18.400Z,96404.55
2017-11-27T17:47:46.284Z,96397.88
2017-11-27T17:50:13.900Z,96406.77
2017-11-27T17:52:41.502Z,96397.09
2017-11-27T17:55:09.140Z,96397.09
2017-11-27T17:57:36.826Z,96394.70
2017-11-27T18:00:05.187Z,96392.11
2017-11-27T18:02:32.810Z,96395.31
2017-11-27T18:05:00.404Z,96391.36
2017-11-27T18:07:28.023Z,96385.77
2017-11-27T18:09:55.734Z,96389.03
2017-11-27T18:12:23.368Z,96378.66
2017-11-27T18:14:50.936Z,96380.19
2017-11-27T18:17:18.510Z,96372.63
2017-11-27T18:19:46.109Z,96372.13
2017-11-27T18:22:13.713Z,96363.05
2017-11-27T18:24:41.293Z,96368.40
2017-11-27T18:27:09.145Z,96363.05
2017-11-27T18:29:36.790Z,96361.57
2017-11-27T18:32:04.387Z,96359.44
2017-11-27T18:34:31.968Z,96358.92
2017-11-27T18:36:59.572Z,96354.72
2017-11-27T18:39:27.157Z,96362.55
2017-11-27T18:41:54.722Z,96355.42
2017-11-27T18:44:22.323Z,96349.00
2017-11-27T18:46:49.887Z,96347.92
2017-11-27T18:49:17.466Z,96342.36
2017-11-27T18:51:45.092Z,96341.66
2017-11-27T18:54:12.653Z,96341.25
2017-11-27T18:56:40.247Z,96330.49
2017-11-27T18:59:07.854Z,96329.23
2017-11-27T19:01:35.479Z,96327.86
2017-11-27T19:04:03.041Z,96322.33
2017-11-27T19:06:30.688Z,96319.80
2017-11-27T19:08:58.267Z,96314.61
2017-11-27T19:11:25.832Z,96315.98
2017-11-27T19:13:53.444Z,96314.36
2017-11-27T19:16:21.134Z,96306.64
2017-11-27T19:18:48.695Z,96309.02
2017-11-27T19:21:16.287Z,96304.03
2017-11-27T19:23:44.028Z,96302.61
2017-11-27T19:26:11.764Z,96299.65
2017-11-27T19:28:39.453Z,96298.83
2017-11-27T19:31:07.020Z,96292.88
2017-11-27T19:33:34.633Z,96295.20
2017-11-27T19:36:02.777Z,96289.36
2017-11-27T19:38:30.522Z,96295.38
2017-11-27T19:40:58.128Z,96291.80
2017-11-27T19:43:25.886Z,96284.55
2017-11-27T19:45:53.474Z,96288.92
2017-11-27T19:48:21.117Z,96281.22
2017-11-27T19:50:48.994Z,96288.14
2017-11-27T19:53:16.566Z,96283.13
2017-11-27T19:55:44.187Z,96283.27
2017-11-27T19:58:11.761Z,96284.62
2017-11-27T20:00:39.359Z,96280.26
2017-11-27T20:03:07.022Z,96279.27
2017-11-27T20:05:34.706Z,96273.23
2017-11-27T20:08:02.306Z,96275.36
2017-11-27T20:10:30.960Z,96270.89
2017-11-27T20:12:58.555Z,96267.36
2017-11-27T20:15:26.118Z,96264.08
2017-11-27T20:17:53.715Z,96255.44
2017-11-27T20:20:21.283Z,96254.53
2017-11-27T20:22:48.911Z,96260.97
2017-11-27T20:25:16.589Z,96256.28
2017-11-27T20:27:44.228Z,96252.09
2017-11-27T20:30:11.819Z,96249.05
2017-11-27T20:32:39.407Z,96255.05
2017-11-27T20:35:07.086Z,96240.28
2017-11-27T20:37:34.688Z,96238.52
2017-11-27T20:40:02.726Z,96236.72
2017-11-27T20:42:30.383Z,96231.93
2017-11-27T20:44:57.942Z,96223.22
2017-11-27T20:47:25.675Z,96219.50
2017-11-27T20:49:53.333Z,96224.73
2017-11-27T20:52:20.923Z,96214.61
2017-11-27T20:54:48.579Z,96208.29
2017-11-27T20:57:16.221Z,96208.53
2017-11-27T20:59:43.804Z,96203.17
2017-11-27T21:02:11.370Z,96196.63
2017-11-27T21:04:38.940Z,96196.26
2017-11-27T21:07:06.545Z,96191.90
2017-11-27T21:09:34.105Z,96197.55
2017-11-27T21:12:01.726Z,96192.05
2017-11-27T21:14:29.385Z,96192.24
2017-11-27T21:19:30.659Z,96182.75
2017-11-27T21:21:58.250Z,96184.38
2017-11-27T21:24:25.876Z,96177.80
2017-11-27T21:26:53.473Z,96172.59
2017-11-27T21:29:21.072Z,96177.17
2017-11-27T21:31:48.633Z,96174.26
2017-11-27T21:34:16.184Z,96169.45
2017-11-27T21:36:43.797Z,96170.77
2017-11-27T21:39:11.472Z,96166.68
2017-11-27T21:41:39.213Z,96172.32
2017-11-27T21:44:06.814Z,96166.45
2017-11-27T21:46:34.402Z,96160.33
2017-11-27T21:49:01.968Z,96158.08
2017-11-27T21:51:30.082Z,96161.88
2017-11-27T21:53:57.703Z,96160.09
2017-11-27T21:56:25.286Z,96158.31
2017-11-27T21:58:52.867Z,96158.77
2017-11-27T22:01:20.423Z,96150.50
2017-11-27T22:03:48.005Z,96150.36
2017-11-27T22:06:15.571Z,96147.08
2017-11-27T22:08:43.210Z,96143.20
2017-11-27T22:11:10.956Z,96142.58
2017-11-27T22:13:38.541Z,96143.96
2017-11-27T22:16:06.113Z,96133.89
2017-11-27T22:18:33.728Z,96135.03
2017-11-27T22:21:01.321Z,96133.81
2017-11-27T22:23:28.942Z,96131.17
2017-11-27T22:25:56.543Z,96130.44
2017-11-27T22:28:24.130Z,96122.97
2017-11-27T22:30:51.702Z,96122.03
2017-11-27T22:33:19.333Z,96121.83
2017-11-27T22:35:46.927Z,96126.42
2017-11-27T22:38:14.548Z,96117.84
2017-11-27T22:40:42.189Z,96113.73
2017-11-27T22:43:09.830Z,96102.58
2017-11-27T22:45:37.387Z,96111.39
2017-11-27T22:48:04.994Z,96100.45
2017-11-27T22:50:32.593Z,96090.43
2017-11-27T22:53:00.167Z,96090.29
2017-11-27T22:55:27.795Z,96082.25
2017-11-27T22:57:55.382Z,96084.88
2017-11-27T23:00:22.965Z,96078.02
2017-11-27T23:02:50.600Z,96065.12
2017-11-27T23:05:18.220Z,96051.17
2017-11-27T23:07:45.848Z,96053.67
2017-11-27T23:10:13.628Z,96042.48
2017-11-27T23:12:41.212Z,96035.44
2017-11-27T23:15:09.014Z,96027.16
2017-11-27T23:17:36.589Z,96033.41
2017-11-27T23:20:04.351Z,96024.86
2017-11-27T23:22:31.946Z,96030.59
2017-11-27T23:24:59.535Z,96022.28
2017-11-27T23:27:27.094Z,96024.59
2017-11-27T23:29:54.713Z,96026.22
2017-11-27T23:32:22.388Z,96022.45
2017-11-27T23:34:49.970Z,96016.42
2017-11-27T23:37:17.559Z,96023.80
2017-11-27T23:39:45.122Z,96030.44
2017-11-27T23:42:12.716Z,96021.83
2017-11-27T23:44:40.329Z,96027.73
2017-11-27T23:47:07.947Z,96013.80
2017-11-27T23:49:35.532Z,96013.64
2017-11-27T23:52:03.479Z,96011.74
2017-11-27T23:54:31.107Z,96010.76
2017-11-27T23:56:58.659Z,96013.20
2017-11-27T23:59:26.274Z,96013.98
